createdAt,value
2022-11-02T00:00:17.242Z,6.56
2022-11-02T00:02:46.827Z,6.64
2022-11-02T00:06:24.100Z,6.63
2022-11-02T00:09:00.837Z,6.62
2022-11-02T00:11:31.963Z,6.70
2022-11-02T00:14:01.921Z,6.75
2022-11-02T00:16:30.299Z,6.83
2022-11-02T00:19:01.411Z,6.87
2022-11-02T00:21:33.294Z,6.88
2022-11-02T00:24:06.058Z,6.94
2022-11-02T00:26:37.495Z,6.98
2022-11-02T00:29:09.724Z,7.13
2022-11-02T00:31:37.662Z,7.08
2022-11-02T00:34:05.609Z,7.12
2022-11-02T00:36:38.390Z,7.09
2022-11-02T00:39:06.440Z,6.98
2022-11-02T00:41:34.446Z,6.96
2022-11-02T00:44:02.898Z,6.92
2022-11-02T00:46:30.916Z,6.97
2022-11-02T00:48:59.001Z,7.05
2022-11-02T00:51:28.463Z,6.97
2022-11-02T00:54:00.275Z,7.06
2022-11-02T00:56:28.673Z,7.07
2022-11-02T00:58:58.913Z,7.10
2022-11-02T01:01:26.860Z,7.11
2022-11-02T01:03:57.508Z,7.22
2022-11-02T01:06:47.218Z,7.24
2022-11-02T01:09:17.754Z,7.24
2022-11-02T01:11:48.075Z,7.29
2022-11-02T01:14:16.592Z,7.27
2022-11-02T01:16:47.476Z,7.25
2022-11-02T01:19:15.643Z,7.17
2022-11-02T01:21:43.576Z,7.11
2022-11-02T01:24:11.813Z,7.05
2022-11-02T01:26:41.085Z,7.06
2022-11-02T01:29:09.264Z,7.03
2022-11-02T01:31:37.192Z,7.02
2022-11-02T01:34:05.260Z,7.06
2022-11-02T01:36:33.154Z,7.07
2022-11-02T01:39:01.052Z,7.06
2022-11-02T01:41:31.931Z,7.06
2022-11-02T01:44:04.237Z,7.06
2022-11-02T01:46:38.413Z,7.01
2022-11-02T01:49:10.402Z,7.05
2022-11-02T01:51:46.085Z,7.02
2022-11-02T01:54:17.537Z,7.03
2022-11-02T01:56:50.386Z,7.03
2022-11-02T01:59:26.040Z,7.02
2022-11-02T02:01:54.617Z,7.01
2022-11-02T02:04:24.788Z,6.94
2022-11-02T02:06:57.891Z,7.00
2022-11-02T02:09:27.573Z,7.00
2022-11-02T02:11:55.536Z,7.05
2022-11-02T02:14:26.042Z,7.05
2022-11-02T02:17:09.710Z,7.03
2022-11-02T02:19:50.041Z,7.04
2022-11-02T02:22:56.645Z,7.01
2022-11-02T02:25:35.243Z,6.97
2022-11-02T02:28:20.403Z,6.97
2022-11-02T02:30:56.812Z,6.97
2022-11-02T02:33:32.096Z,6.95
2022-11-02T02:36:06.223Z,6.87
2022-11-02T02:38:42.605Z,6.84
2022-11-02T02:41:15.570Z,6.80
2022-11-02T02:43:50.454Z,6.84
2022-11-02T02:46:24.152Z,6.82
2022-11-02T02:48:55.462Z,6.80
2022-11-02T02:51:32.283Z,6.88
2022-11-02T02:54:03.916Z,6.84
2022-11-02T02:56:39.037Z,6.89
2022-11-02T02:59:14.176Z,6.88
2022-11-02T03:01:44.679Z,6.90
2022-11-02T03:04:13.770Z,6.95
2022-11-02T03:06:45.370Z,6.97
2022-11-02T03:09:23.687Z,6.99
2022-11-02T03:12:04.694Z,7.03
2022-11-02T03:14:48.597Z,7.01
2022-11-02T03:17:25.568Z,7.03
2022-11-02T03:20:00.616Z,7.04
2022-11-02T03:22:34.998Z,7.06
2022-11-02T03:25:12.263Z,7.06
2022-11-02T03:27:51.855Z,7.09
2022-11-02T03:30:23.888Z,7.05
2022-11-02T03:32:58.133Z,7.01
2022-11-02T03:35:35.087Z,6.97
2022-11-02T03:38:07.803Z,7.02
2022-11-02T03:40:43.087Z,7.09
2022-11-02T03:43:15.993Z,7.13
2022-11-02T03:45:51.177Z,7.09
2022-11-02T03:48:21.192Z,7.06
2022-11-02T03:50:52.275Z,7.01
2022-11-02T03:53:28.948Z,6.97
2022-11-02T03:56:05.268Z,6.89
2022-11-02T03:58:33.511Z,6.86
2022-11-02T04:01:05.500Z,6.80
2022-11-02T04:03:35.146Z,6.77
2022-11-02T04:06:05.565Z,6.79
2022-11-02T04:08:38.770Z,6.86
2022-11-02T04:11:27.587Z,6.79
2022-11-02T04:14:17.480Z,6.81
2022-11-02T04:16:47.817Z,6.80
2022-11-02T04:19:30.338Z,6.88
2022-11-02T04:22:34.174Z,6.94
2022-11-02T04:25:18.368Z,7.05
2022-11-02T04:28:10.601Z,7.19
2022-11-02T04:30:59.427Z,7.24
2022-11-02T04:33:35.971Z,7.26
2022-11-02T04:36:09.211Z,7.25
2022-11-02T04:38:41.004Z,7.24
2022-11-02T04:41:34.150Z,7.20
2022-11-02T04:44:03.172Z,7.11
2022-11-02T04:46:33.131Z,7.09
2022-11-02T04:49:05.403Z,6.98
2022-11-02T04:51:36.654Z,6.94
2022-11-02T04:54:08.028Z,6.90
2022-11-02T04:56:39.774Z,6.83
2022-11-02T04:59:10.957Z,6.78
2022-11-02T05:01:39.537Z,6.74
2022-11-02T05:07:23.996Z,6.58
2022-11-02T05:09:52.271Z,6.53
2022-11-02T05:12:28.084Z,6.45
2022-11-02T05:14:57.851Z,6.47
2022-11-02T05:17:28.325Z,6.47
2022-11-02T05:19:57.095Z,6.48
2022-11-02T05:22:26.397Z,6.52
2022-11-02T05:24:54.769Z,6.47
2022-11-02T05:27:23.462Z,6.42
2022-11-02T05:29:51.617Z,6.34
2022-11-02T05:32:19.942Z,6.40
2022-11-02T05:34:48.702Z,6.40
2022-11-02T05:37:16.763Z,6.36
2022-11-02T05:39:49.356Z,6.29
2022-11-02T05:42:18.891Z,6.33
2022-11-02T05:44:47.022Z,6.32
2022-11-02T05:47:15.040Z,6.34
2022-11-02T05:49:43.094Z,6.32
2022-11-02T05:52:11.150Z,6.30
2022-11-02T05:54:39.032Z,6.30
2022-11-02T05:57:08.590Z,6.44
2022-11-02T05:59:36.498Z,6.51
2022-11-02T06:02:06.802Z,6.45
2022-11-02T06:04:34.765Z,6.39
2022-11-02T06:07:05.317Z,6.33
2022-11-02T06:09:33.303Z,6.25
2022-11-02T06:12:01.328Z,6.20
2022-11-02T06:14:30.771Z,6.19
2022-11-02T06:17:01.495Z,6.23
2022-11-02T06:19:29.442Z,6.25
2022-11-02T06:21:57.817Z,6.22
2022-11-02T06:24:26.091Z,6.17
2022-11-02T06:26:53.985Z,6.16
2022-11-02T06:29:22.296Z,6.13
2022-11-02T06:31:51.568Z,6.24
2022-11-02T06:34:19.666Z,6.38
2022-11-02T06:36:50.581Z,6.46
2022-11-02T06:39:19.036Z,6.60
2022-11-02T06:41:46.918Z,6.68
2022-11-02T06:44:15.348Z,6.75
2022-11-02T06:46:43.263Z,6.85
2022-11-02T06:49:12.850Z,7.03
2022-11-02T06:51:40.733Z,7.14
2022-11-02T06:54:09.095Z,7.22
2022-11-02T06:56:37.162Z,7.29
2022-11-02T06:59:05.256Z,7.31
2022-11-02T07:01:33.301Z,7.39
2022-11-02T07:04:01.829Z,7.45
2022-11-02T07:06:31.125Z,7.55
2022-11-02T07:08:59.170Z,7.73
2022-11-02T07:11:27.109Z,7.80
2022-11-02T07:13:57.877Z,8.15
2022-11-02T07:16:26.308Z,8.38
2022-11-02T07:18:54.364Z,8.68
2022-11-02T07:21:22.334Z,8.98
2022-11-02T07:23:51.894Z,9.25
2022-11-02T07:26:19.776Z,9.50
2022-11-02T07:28:48.158Z,9.72
2022-11-02T07:31:16.030Z,9.99
2022-11-02T07:33:44.274Z,10.30
2022-11-02T07:36:12.221Z,10.57
2022-11-02T07:38:43.056Z,10.92
2022-11-02T07:41:12.276Z,11.31
2022-11-02T07:43:43.274Z,11.91
2022-11-02T07:46:35.268Z,12.53
2022-11-02T07:49:03.388Z,12.88
2022-11-02T07:51:31.329Z,13.46
2022-11-02T07:54:02.994Z,13.53
2022-11-02T07:56:32.361Z,13.68
2022-11-02T07:59:00.282Z,14.02
2022-11-02T08:01:28.296Z,14.07
2022-11-02T08:03:57.393Z,14.30
2022-11-02T08:06:25.285Z,14.89
2022-11-02T08:08:53.487Z,14.74
2022-11-02T08:11:21.444Z,15.10
2022-11-02T08:13:50.697Z,15.37
2022-11-02T08:16:18.624Z,15.84
2022-11-02T08:18:46.711Z,15.42
2022-11-02T08:21:14.707Z,15.80
2022-11-02T08:23:42.937Z,16.78
2022-11-02T08:26:10.990Z,16.68
2022-11-02T08:28:40.373Z,16.67
2022-11-02T08:31:15.545Z,16.77
2022-11-02T08:33:43.745Z,16.80
2022-11-02T08:36:13.996Z,17.18
2022-11-02T08:38:42.481Z,17.27
2022-11-02T08:41:10.365Z,16.90
2022-11-02T08:43:38.366Z,17.56
2022-11-02T08:46:15.583Z,18.07
2022-11-02T08:48:44.120Z,17.50
2022-11-02T08:51:12.057Z,17.74
2022-11-02T08:53:40.140Z,18.81
2022-11-02T08:56:08.563Z,18.73
2022-11-02T08:58:39.277Z,18.47
2022-11-02T09:01:07.264Z,18.69
2022-11-02T09:03:36.785Z,18.21
2022-11-02T09:06:05.384Z,17.48
2022-11-02T09:08:34.043Z,17.99
2022-11-02T09:11:03.783Z,18.24
2022-11-02T09:13:31.940Z,18.61
2022-11-02T09:16:01.340Z,18.96
2022-11-02T09:18:30.152Z,18.81
2022-11-02T09:21:03.007Z,18.72
2022-11-02T09:23:33.816Z,20.23
2022-11-02T09:26:01.806Z,19.35
2022-11-02T09:28:29.860Z,19.11
2022-11-02T09:30:57.879Z,19.48
2022-11-02T09:33:29.917Z,19.09
2022-11-02T09:36:03.598Z,19.00
2022-11-02T09:38:32.032Z,19.68
2022-11-02T09:41:07.349Z,19.98
2022-11-02T09:43:48.931Z,19.14
2022-11-02T09:46:20.811Z,19.53
2022-11-02T09:48:53.120Z,19.20
2022-11-02T09:51:26.449Z,19.38
2022-11-02T09:54:03.181Z,19.75
2022-11-02T09:56:31.923Z,19.19
2022-11-02T09:59:03.116Z,19.29
2022-11-02T10:01:45.905Z,19.38
2022-11-02T10:04:46.325Z,19.35
2022-11-02T10:08:41.303Z,19.83
2022-11-02T10:11:27.989Z,19.71
2022-11-02T10:14:01.760Z,19.37
2022-11-02T10:16:37.062Z,19.33
2022-11-02T10:19:13.496Z,19.20
2022-11-02T10:21:45.933Z,19.58
2022-11-02T10:24:26.018Z,19.22
2022-11-02T10:26:57.731Z,19.61
2022-11-02T10:29:40.797Z,19.50
2022-11-02T10:32:10.954Z,20.80
2022-11-02T10:34:40.319Z,21.06
2022-11-02T10:37:29.875Z,20.56
2022-11-02T10:40:14.050Z,21.00
2022-11-02T10:42:57.536Z,21.41
2022-11-02T10:45:44.969Z,20.93
2022-11-02T10:48:27.339Z,20.91
2022-11-02T10:51:05.232Z,20.60
2022-11-02T10:53:47.249Z,20.71
2022-11-02T10:56:21.422Z,20.31
2022-11-02T10:59:00.237Z,20.64
2022-11-02T11:01:30.260Z,21.83
2022-11-02T11:04:01.267Z,21.26
2022-11-02T11:06:32.099Z,21.23
2022-11-02T11:09:02.281Z,20.12
2022-11-02T11:11:36.653Z,20.65
2022-11-02T11:19:50.964Z,20.21
2022-11-02T11:22:28.617Z,20.14
2022-11-02T11:25:27.672Z,20.51
2022-11-02T11:27:59.225Z,20.15
2022-11-02T11:33:21.055Z,21.45
2022-11-02T11:35:50.654Z,21.44
2022-11-02T11:38:22.280Z,21.32
2022-11-02T11:40:53.873Z,21.47
2022-11-02T11:43:26.264Z,21.50
2022-11-02T11:46:01.935Z,21.34
2022-11-02T11:48:37.595Z,21.54
2022-11-02T11:51:27.517Z,21.68
2022-11-02T11:54:23.635Z,20.87
2022-11-02T11:56:55.564Z,20.83
2022-11-02T11:59:31.552Z,20.29
2022-11-02T12:02:01.153Z,20.32
2022-11-02T12:04:31.693Z,20.11
2022-11-02T12:07:36.951Z,21.23
2022-11-02T12:10:15.685Z,20.29
2022-11-02T12:12:55.834Z,20.71
2022-11-02T12:15:40.242Z,19.88
2022-11-02T12:18:29.692Z,19.88
2022-11-02T12:21:11.663Z,18.75
2022-11-02T12:24:01.015Z,18.15
2022-11-02T12:26:44.517Z,18.03
2022-11-02T12:29:20.300Z,17.15
2022-11-02T12:32:00.999Z,17.29
2022-11-02T12:35:02.986Z,16.72
2022-11-02T12:37:56.124Z,16.31
2022-11-02T12:40:31.407Z,16.10
2022-11-02T12:43:12.768Z,16.05
2022-11-02T12:45:48.189Z,15.82
2022-11-02T12:48:25.779Z,15.94
2022-11-02T12:51:00.674Z,15.78
2022-11-02T12:53:40.683Z,15.74
2022-11-02T12:56:13.886Z,15.67
2022-11-02T12:58:45.465Z,15.66
2022-11-02T13:01:24.628Z,15.59
2022-11-02T13:04:00.122Z,15.56
2022-11-02T13:06:35.132Z,15.54
2022-11-02T13:09:08.492Z,15.63
2022-11-02T13:11:38.374Z,15.48
2022-11-02T13:14:15.576Z,15.61
2022-11-02T13:16:50.102Z,15.61
2022-11-02T13:19:23.102Z,15.55
2022-11-02T13:21:56.137Z,15.40
2022-11-02T13:24:31.699Z,15.33
2022-11-02T13:27:36.004Z,15.47
2022-11-02T13:29:55.289Z,15.55
2022-11-02T13:32:33.547Z,15.34
2022-11-02T13:35:15.357Z,15.26
2022-11-02T13:37:50.996Z,15.14
2022-11-02T13:40:22.326Z,15.21
2022-11-02T13:43:26.285Z,15.11
2022-11-02T13:46:16.557Z,15.06
2022-11-02T13:48:55.259Z,14.97
2022-11-02T13:51:34.389Z,14.84
2022-11-02T13:54:07.496Z,14.85
2022-11-02T13:56:38.787Z,14.76
2022-11-02T13:59:09.432Z,14.72
2022-11-02T14:01:42.664Z,14.64
2022-11-02T14:04:15.597Z,14.49
2022-11-02T14:06:52.461Z,14.50
2022-11-02T14:09:33.502Z,14.51
2022-11-02T14:12:47.463Z,14.48
2022-11-02T14:17:07.006Z,14.47
2022-11-02T14:19:52.127Z,14.43
2022-11-02T14:22:22.053Z,14.43
2022-11-02T14:25:20.255Z,14.38
2022-11-02T14:27:48.589Z,14.32
2022-11-02T14:30:44.050Z,14.27
2022-11-02T14:33:32.122Z,14.23
2022-11-02T14:36:06.660Z,14.22
2022-11-02T14:38:58.143Z,14.23
2022-11-02T14:41:41.632Z,14.15
2022-11-02T14:44:24.184Z,14.09
2022-11-02T14:46:56.800Z,14.03
2022-11-02T14:49:29.679Z,14.02
2022-11-02T14:52:04.691Z,13.98
2022-11-02T14:54:41.539Z,13.86
2022-11-02T14:57:24.467Z,13.79
2022-11-02T14:59:56.898Z,13.66
2022-11-02T15:02:30.950Z,13.59
2022-11-02T15:05:00.662Z,13.57
2022-11-02T15:07:34.817Z,13.45
2022-11-02T15:10:08.826Z,13.38
2022-11-02T15:12:40.944Z,13.26
2022-11-02T15:15:38.305Z,13.13
2022-11-02T15:18:35.480Z,13.02
2022-11-02T15:21:24.375Z,12.93
2022-11-02T15:24:01.191Z,12.86
2022-11-02T15:26:40.729Z,12.77
2022-11-02T15:29:17.555Z,12.65
2022-11-02T15:31:54.660Z,12.55
2022-11-02T15:34:34.265Z,12.44
2022-11-02T15:37:05.696Z,12.28
2022-11-02T15:39:34.352Z,12.14
2022-11-02T15:42:08.599Z,11.99
2022-11-02T15:45:09.240Z,11.88
2022-11-02T15:47:57.168Z,11.70
2022-11-02T15:50:41.794Z,11.65
2022-11-02T15:53:51.437Z,11.68
2022-11-02T15:56:40.011Z,11.56
2022-11-02T15:59:31.681Z,11.45
2022-11-02T16:02:22.754Z,11.36
2022-11-02T16:04:54.672Z,11.21
2022-11-02T16:07:29.210Z,11.00
2022-11-02T16:10:13.980Z,10.83
2022-11-02T16:12:41.918Z,10.72
2022-11-02T16:15:15.952Z,10.59
2022-11-02T16:17:43.962Z,10.63
2022-11-02T16:20:19.179Z,10.70
2022-11-02T16:22:50.008Z,10.59
2022-11-02T16:25:22.015Z,10.49
2022-11-02T16:27:50.376Z,10.37
2022-11-02T16:30:22.380Z,10.23
2022-11-02T16:32:54.241Z,10.06
2022-11-02T16:35:22.608Z,9.93
2022-11-02T16:37:53.569Z,9.81
2022-11-02T16:40:22.654Z,9.67
2022-11-02T16:42:56.232Z,9.58
2022-11-02T16:45:40.472Z,9.41
2022-11-02T16:48:24.863Z,9.38
2022-11-02T16:51:02.989Z,9.27
2022-11-02T16:53:35.681Z,9.13
2022-11-02T16:56:28.310Z,9.06
2022-11-02T16:59:00.973Z,8.98
2022-11-02T17:01:37.497Z,8.87
2022-11-02T17:04:18.632Z,8.77
2022-11-02T17:06:48.667Z,8.80
2022-11-02T17:09:25.178Z,8.75
2022-11-02T17:11:58.955Z,8.67
2022-11-02T17:14:29.367Z,8.60
2022-11-02T17:17:06.100Z,8.51
2022-11-02T17:19:46.794Z,8.43
2022-11-02T17:22:24.814Z,8.35
2022-11-02T17:25:05.978Z,8.25
2022-11-02T17:27:39.173Z,8.18
2022-11-02T17:30:44.754Z,8.10
2022-11-02T17:33:29.861Z,8.10
2022-11-02T17:36:06.487Z,8.05
2022-11-02T17:38:34.802Z,7.96
2022-11-02T17:41:23.076Z,7.92
2022-11-02T17:43:50.059Z,7.88
2022-11-02T17:46:18.099Z,7.82
2022-11-02T17:48:50.491Z,7.79
2022-11-02T17:51:21.045Z,7.77
2022-11-02T17:53:51.587Z,7.71
2022-11-02T17:56:19.686Z,7.66
2022-11-02T17:58:47.727Z,7.60
2022-11-02T18:01:15.923Z,7.56
2022-11-02T18:03:44.008Z,7.58
2022-11-02T18:06:13.327Z,7.59
2022-11-02T18:09:01.271Z,7.55
2022-11-02T18:11:29.258Z,7.47
2022-11-02T18:13:57.174Z,7.56
2022-11-02T18:16:25.649Z,7.53
2022-11-02T18:18:53.584Z,7.45
2022-11-02T18:21:22.935Z,7.38
2022-11-02T18:23:51.206Z,7.33
2022-11-02T18:26:19.497Z,7.26
2022-11-02T18:28:47.418Z,7.21
2022-11-02T18:31:15.481Z,7.15
2022-11-02T18:33:44.307Z,7.10
2022-11-02T18:36:12.632Z,7.01
2022-11-02T18:38:42.275Z,6.96
2022-11-02T18:41:26.304Z,6.88
2022-11-02T18:44:00.551Z,6.83
2022-11-02T18:46:32.661Z,6.80
2022-11-02T18:49:00.695Z,6.80
2022-11-02T18:51:29.083Z,6.72
2022-11-02T18:54:03.849Z,6.66
2022-11-02T18:56:34.293Z,6.59
2022-11-02T18:59:05.436Z,6.59
2022-11-02T19:01:33.814Z,6.54
2022-11-02T19:04:04.652Z,6.53
2022-11-02T19:06:51.745Z,6.54
2022-11-02T19:09:23.621Z,6.46
2022-11-02T19:11:56.622Z,6.43
2022-11-02T19:14:29.320Z,6.39
2022-11-02T19:19:18.386Z,6.27
2022-11-02T19:21:46.546Z,6.20
2022-11-02T19:24:16.581Z,6.18
2022-11-02T19:26:44.852Z,6.12
2022-11-02T19:29:13.105Z,6.10
2022-11-02T19:31:41.164Z,6.07
2022-11-02T19:34:11.811Z,5.99
2022-11-02T19:36:41.515Z,6.02
2022-11-02T19:39:11.049Z,5.99
2022-11-02T19:41:39.877Z,6.01
2022-11-02T19:44:08.217Z,6.02
2022-11-02T19:46:36.275Z,6.00
2022-11-02T19:49:04.560Z,5.95
2022-11-02T19:51:35.502Z,5.92
2022-11-02T19:54:05.281Z,5.93
2022-11-02T19:56:36.351Z,6.00
2022-11-02T19:59:07.168Z,6.12
2022-11-02T20:01:37.411Z,6.22
2022-11-02T20:04:06.549Z,6.35
2022-11-02T20:06:36.917Z,6.44
2022-11-02T20:09:11.463Z,6.59
2022-11-02T20:11:42.131Z,6.72
2022-11-02T20:14:10.240Z,6.85
2022-11-02T20:16:38.251Z,6.97
2022-11-02T20:19:11.386Z,7.05
2022-11-02T20:21:42.940Z,7.05
2022-11-02T20:24:13.533Z,7.05
2022-11-02T20:26:42.401Z,7.05
2022-11-02T20:29:15.471Z,7.13
2022-11-02T20:31:48.484Z,7.22
2022-11-02T20:34:16.817Z,7.26
2022-11-02T20:36:44.799Z,7.30
2022-11-02T20:39:14.831Z,7.33
2022-11-02T20:41:42.872Z,7.40
2022-11-02T20:44:11.083Z,7.47
2022-11-02T20:46:41.584Z,7.51
2022-11-02T20:49:29.046Z,7.51
2022-11-02T20:51:59.013Z,7.52
2022-11-02T20:54:30.654Z,7.49
2022-11-02T20:56:58.766Z,7.44
2022-11-02T20:59:26.835Z,7.41
2022-11-02T21:01:54.921Z,7.33
2022-11-02T21:04:23.129Z,7.28
2022-11-02T21:06:51.353Z,7.14
2022-11-02T21:09:19.874Z,7.08
2022-11-02T21:12:06.889Z,6.99
2022-11-02T21:14:35.081Z,6.89
2022-11-02T21:17:06.828Z,6.73
2022-11-02T21:19:35.108Z,6.71
2022-11-02T21:22:03.083Z,6.65
2022-11-02T21:24:31.077Z,6.58
2022-11-02T21:27:02.696Z,6.47
2022-11-02T21:29:30.829Z,6.42
2022-11-02T21:31:58.894Z,6.34
2022-11-02T21:34:26.940Z,6.25
2022-11-02T21:36:55.105Z,6.26
2022-11-02T21:39:23.121Z,6.21
2022-11-02T21:41:51.081Z,6.16
2022-11-02T21:44:23.538Z,6.14
2022-11-02T21:46:51.603Z,6.11
2022-11-02T21:49:19.535Z,6.12
2022-11-02T21:51:47.930Z,6.04
2022-11-02T21:54:16.106Z,5.98
2022-11-02T21:56:46.197Z,5.89
2022-11-02T21:59:16.905Z,5.89
2022-11-02T22:01:46.584Z,5.86
2022-11-02T22:04:19.613Z,5.73
2022-11-02T22:06:48.163Z,5.77
2022-11-02T22:09:16.178Z,5.76
2022-11-02T22:11:45.176Z,5.74
2022-11-02T22:14:12.989Z,5.69
2022-11-02T22:16:42.079Z,5.70
2022-11-02T22:19:13.379Z,5.71
2022-11-02T22:21:44.704Z,5.78
2022-11-02T22:24:13.204Z,5.75
2022-11-02T22:26:41.642Z,5.78
2022-11-02T22:29:09.927Z,5.85
2022-11-02T22:31:39.930Z,5.82
2022-11-02T22:34:10.343Z,5.78
2022-11-02T22:36:42.070Z,5.73
2022-11-02T22:39:12.824Z,5.71
2022-11-02T22:41:42.722Z,5.68
2022-11-02T22:44:12.536Z,5.67
2022-11-02T22:46:42.583Z,5.69
2022-11-02T22:49:12.876Z,5.70
2022-11-02T22:51:44.345Z,5.69
2022-11-02T22:54:15.446Z,5.65
2022-11-02T22:56:47.824Z,5.70
2022-11-02T22:59:19.079Z,5.73
2022-11-02T23:01:47.308Z,5.76
2022-11-02T23:04:15.548Z,5.76
2022-11-02T23:06:50.091Z,5.71
2022-11-02T23:09:18.187Z,5.68
2022-11-02T23:11:45.237Z,5.64
2022-11-02T23:14:17.009Z,5.60
2022-11-02T23:16:48.494Z,5.58
2022-11-02T23:19:30.532Z,5.57
2022-11-02T23:22:19.987Z,5.57
2022-11-02T23:25:07.397Z,5.54
2022-11-02T23:27:58.406Z,5.51
2022-11-02T23:30:48.983Z,5.45
2022-11-02T23:33:17.688Z,5.40
2022-11-02T23:36:02.399Z,5.42
2022-11-02T23:38:46.170Z,5.54
2022-11-02T23:41:14.302Z,5.54
2022-11-02T23:43:42.681Z,5.52
2022-11-02T23:46:10.639Z,5.51
2022-11-02T23:48:42.502Z,5.49
2022-11-02T23:51:30.159Z,5.54
2022-11-02T23:54:19.216Z,5.56
2022-11-02T23:56:47.354Z,5.52
2022-11-02T23:59:17.089Z,5.45
